createdAt,value
2018-08-28T00:02:39.037Z,69.24
2018-08-28T00:06:03.747Z,66.22
2018-08-28T00:09:28.454Z,66.92
2018-08-28T00:12:53.165Z,67.22
2018-08-28T00:16:17.914Z,66.69
2018-08-28T00:19:42.691Z,67.35
2018-08-28T00:23:07.502Z,68.74
2018-08-28T00:26:32.255Z,68.93
2018-08-28T00:29:56.986Z,71.17
2018-08-28T00:33:21.817Z,68.50
2018-08-28T00:36:46.663Z,68.71
2018-08-28T00:40:11.562Z,70.47
2018-08-28T00:43:36.353Z,67.54
2018-08-28T00:47:01.037Z,70.71
2018-08-28T00:50:25.872Z,69.14
2018-08-28T00:53:50.574Z,72.60
2018-08-28T00:57:15.195Z,67.48
2018-08-28T01:00:39.871Z,68.45
2018-08-28T01:04:04.540Z,68.88
2018-08-28T01:07:29.294Z,70.60
2018-08-28T01:10:53.932Z,71.73
2018-08-28T01:14:18.601Z,69.58
2018-08-28T01:17:43.337Z,70.51
2018-08-28T01:21:08.037Z,71.41
2018-08-28T01:24:32.679Z,72.78
2018-08-28T01:27:57.359Z,71.54
2018-08-28T01:31:22.005Z,74.33
2018-08-28T01:34:46.661Z,75.70
2018-08-28T01:38:11.324Z,73.73
2018-08-28T01:41:36.005Z,73.18
2018-08-28T01:45:00.667Z,73.02
2018-08-28T01:48:25.349Z,70.53
2018-08-28T01:51:50.001Z,71.95
2018-08-28T01:55:14.667Z,72.62
2018-08-28T01:58:39.375Z,73.47
2018-08-28T02:02:04.074Z,73.14
2018-08-28T02:05:28.773Z,75.77
2018-08-28T02:08:53.480Z,75.23
2018-08-28T02:12:18.155Z,74.12
2018-08-28T02:15:42.810Z,72.40
2018-08-28T02:19:07.521Z,72.23
2018-08-28T02:22:32.103Z,73.89
2018-08-28T02:25:57.168Z,73.65
2018-08-28T02:29:21.799Z,72.63
2018-08-28T02:32:46.495Z,73.59
2018-08-28T02:36:11.181Z,71.78
2018-08-28T02:39:35.902Z,74.28
2018-08-28T02:43:00.627Z,73.77
2018-08-28T02:46:25.286Z,72.59
2018-08-28T02:49:49.969Z,74.00
2018-08-28T02:53:14.651Z,73.39
2018-08-28T02:56:39.339Z,72.20
2018-08-28T03:00:03.979Z,70.91
2018-08-28T03:03:28.616Z,69.45
2018-08-28T03:06:53.345Z,71.66
2018-08-28T03:10:18.025Z,73.32
2018-08-28T03:13:42.805Z,71.39
2018-08-28T03:17:07.671Z,71.17
2018-08-28T03:20:32.325Z,71.25
2018-08-28T03:23:57.050Z,70.20
2018-08-28T03:27:21.701Z,70.87
2018-08-28T03:30:46.370Z,70.71
2018-08-28T03:34:11.054Z,69.95
2018-08-28T03:37:35.773Z,71.59
2018-08-28T03:41:00.655Z,70.49
2018-08-28T03:45:54.456Z,70.35
2018-08-28T03:49:25.858Z,71.56
2018-08-28T03:52:50.628Z,69.98
2018-08-28T03:56:15.341Z,72.10
2018-08-28T03:59:40.011Z,69.94
2018-08-28T04:03:04.705Z,69.56
2018-08-28T04:06:29.559Z,70.52
2018-08-28T04:09:54.253Z,71.67
2018-08-28T04:13:19.041Z,71.17
2018-08-28T04:16:43.809Z,68.22
2018-08-28T04:20:08.600Z,70.52
2018-08-28T04:23:33.307Z,70.34
2018-08-28T04:26:57.964Z,70.05
2018-08-28T04:30:22.702Z,70.76
2018-08-28T04:33:47.394Z,71.98
2018-08-28T04:37:12.236Z,70.47
2018-08-28T04:40:36.933Z,70.72
2018-08-28T04:44:01.651Z,70.52
2018-08-28T04:47:26.464Z,68.56
2018-08-28T04:50:51.187Z,67.75
2018-08-28T04:54:16.011Z,70.79
2018-08-28T04:57:40.603Z,72.11
2018-08-28T05:01:05.402Z,72.59
2018-08-28T05:04:30.249Z,69.72
2018-08-28T05:07:55.089Z,66.90
2018-08-28T05:14:53.485Z,70.65
2018-08-28T05:18:18.388Z,66.33
2018-08-28T05:21:43.484Z,66.34
2018-08-28T05:25:08.618Z,67.97
2018-08-28T05:28:33.586Z,69.54
2018-08-28T05:31:58.275Z,68.03
2018-08-28T05:35:22.934Z,69.89
2018-08-28T05:38:47.693Z,72.68
2018-08-28T05:42:12.578Z,72.27
2018-08-28T05:45:37.366Z,72.66
2018-08-28T05:49:02.356Z,72.06
2018-08-28T05:52:27.070Z,71.94
2018-08-28T05:55:51.842Z,71.48
2018-08-28T05:59:16.600Z,71.49
2018-08-28T06:02:41.450Z,70.70
2018-08-28T06:06:06.470Z,72.24
2018-08-28T06:09:31.361Z,71.62
2018-08-28T06:12:56.329Z,71.80
2018-08-28T06:16:21.122Z,71.99
2018-08-28T06:19:47.008Z,69.64
2018-08-28T06:23:11.651Z,70.50
2018-08-28T06:26:36.396Z,71.15
2018-08-28T06:30:01.267Z,71.38
2018-08-28T06:33:26.094Z,70.97
2018-08-28T06:36:50.851Z,72.19
2018-08-28T06:40:15.477Z,71.05
2018-08-28T06:43:42.159Z,70.22
2018-08-28T06:47:08.074Z,69.82
2018-08-28T06:50:33.854Z,67.55
2018-08-28T06:53:59.070Z,70.58
2018-08-28T06:57:24.995Z,71.18
2018-08-28T07:00:50.289Z,68.81
2018-08-28T07:04:15.264Z,67.62
2018-08-28T07:07:41.000Z,67.66
2018-08-28T07:11:07.086Z,67.39
2018-08-28T07:14:31.823Z,67.78
2018-08-28T07:17:57.304Z,67.12
2018-08-28T07:21:22.069Z,67.37
2018-08-28T07:24:46.986Z,65.10
2018-08-28T07:28:11.664Z,65.86
2018-08-28T07:31:36.520Z,64.00
2018-08-28T07:35:03.063Z,64.28
2018-08-28T07:38:27.934Z,62.60
2018-08-28T07:41:52.759Z,62.38
2018-08-28T07:45:17.642Z,62.37
2018-08-28T07:48:42.450Z,62.04
2018-08-28T07:52:07.375Z,62.22
2018-08-28T07:55:32.181Z,62.90
2018-08-28T07:58:58.165Z,63.40
2018-08-28T08:02:23.405Z,62.35
2018-08-28T08:05:50.830Z,63.57
2018-08-28T08:09:15.916Z,64.27
2018-08-28T08:12:41.709Z,62.78
2018-08-28T08:16:06.688Z,61.68
2018-08-28T08:19:31.398Z,60.96
2018-08-28T08:22:56.786Z,61.89
2018-08-28T08:26:21.501Z,62.78
2018-08-28T08:29:47.412Z,61.78
2018-08-28T08:33:12.913Z,62.31
2018-08-28T08:36:38.267Z,62.64
2018-08-28T08:40:03.068Z,63.02
2018-08-28T08:43:28.706Z,62.52
2018-08-28T08:46:53.323Z,62.31
2018-08-28T08:50:18.240Z,62.53
2018-08-28T08:53:43.045Z,60.82
2018-08-28T08:57:08.196Z,60.59
2018-08-28T09:00:34.591Z,60.06
2018-08-28T09:03:59.739Z,59.70
2018-08-28T09:07:24.632Z,59.77
2018-08-28T09:10:49.397Z,61.03
2018-08-28T09:14:14.547Z,60.28
2018-08-28T09:17:39.271Z,60.61
2018-08-28T09:21:08.865Z,60.63
2018-08-28T09:24:35.839Z,60.64
2018-08-28T09:28:01.538Z,59.90
2018-08-28T09:31:28.430Z,59.37
2018-08-28T09:34:54.037Z,60.01
2018-08-28T09:38:19.511Z,60.24
2018-08-28T09:41:46.385Z,61.04
2018-08-28T09:45:12.465Z,60.03
2018-08-28T09:48:38.235Z,60.38
2018-08-28T09:52:05.066Z,59.31
2018-08-28T09:55:31.073Z,58.85
2018-08-28T09:58:57.003Z,58.46
2018-08-28T10:02:24.885Z,58.37
2018-08-28T10:05:50.272Z,58.48
2018-08-28T10:09:16.649Z,57.68
2018-08-28T10:12:44.978Z,57.42
2018-08-28T10:16:10.553Z,57.17
2018-08-28T10:19:36.739Z,56.63
2018-08-28T10:23:03.378Z,57.28
2018-08-28T10:26:30.010Z,56.64
2018-08-28T10:29:57.174Z,54.98
2018-08-28T10:33:23.017Z,55.72
2018-08-28T10:36:48.499Z,55.30
2018-08-28T10:40:13.941Z,55.14
2018-08-28T10:43:39.249Z,54.50
2018-08-28T10:47:05.453Z,54.82
2018-08-28T10:50:31.768Z,55.90
2018-08-28T10:53:58.931Z,54.01
2018-08-28T10:57:23.679Z,54.37
2018-08-28T11:00:50.284Z,53.91
2018-08-28T11:04:15.065Z,52.80
2018-08-28T11:07:40.519Z,53.73
2018-08-28T11:11:05.439Z,53.53
2018-08-28T11:14:30.284Z,54.51
2018-08-28T11:17:55.127Z,54.79
2018-08-28T11:21:19.955Z,53.15
2018-08-28T11:24:44.697Z,54.05
2018-08-28T11:28:09.934Z,52.03
2018-08-28T11:31:34.657Z,51.47
2018-08-28T11:34:59.480Z,52.12
2018-08-28T11:38:24.731Z,51.98
2018-08-28T11:41:50.241Z,50.05
2018-08-28T11:45:14.895Z,49.64
2018-08-28T11:48:39.752Z,50.01
2018-08-28T11:52:05.739Z,50.50
2018-08-28T11:55:30.467Z,50.02
2018-08-28T11:58:55.154Z,52.07
2018-08-28T12:02:21.105Z,49.26
2018-08-28T12:05:46.661Z,49.50
2018-08-28T12:09:13.073Z,46.99
2018-08-28T12:12:38.181Z,49.21
2018-08-28T12:16:02.904Z,47.17
2018-08-28T12:19:27.543Z,46.91
2018-08-28T12:22:52.266Z,46.70
2018-08-28T12:26:16.927Z,46.71
2018-08-28T12:29:41.677Z,49.33
2018-08-28T12:33:05.906Z,47.91
2018-08-28T12:36:30.548Z,46.90
2018-08-28T12:39:55.293Z,48.51
2018-08-28T12:43:20.086Z,47.23
2018-08-28T12:46:44.748Z,47.29
2018-08-28T12:50:10.275Z,47.08
2018-08-28T12:53:34.911Z,48.55
2018-08-28T12:56:59.613Z,45.55
2018-08-28T13:00:24.337Z,45.82
2018-08-28T13:03:48.971Z,43.82
2018-08-28T13:07:13.572Z,44.87
2018-08-28T13:10:38.942Z,45.73
2018-08-28T13:14:03.573Z,46.20
2018-08-28T13:17:28.300Z,46.37
2018-08-28T13:20:52.970Z,44.66
2018-08-28T13:24:17.664Z,47.66
2018-08-28T13:27:42.338Z,44.31
2018-08-28T13:31:06.999Z,43.59
2018-08-28T13:34:31.617Z,46.81
2018-08-28T13:37:56.311Z,45.64
2018-08-28T13:41:21.024Z,46.38
2018-08-28T13:44:46.560Z,47.23
2018-08-28T13:48:11.239Z,44.95
2018-08-28T13:51:35.906Z,43.04
2018-08-28T13:55:00.585Z,44.97
2018-08-28T13:58:25.209Z,44.97
2018-08-28T14:01:49.901Z,42.73
2018-08-28T14:05:14.643Z,44.20
2018-08-28T14:08:39.881Z,40.91
2018-08-28T14:12:04.577Z,41.73
2018-08-28T14:15:29.257Z,40.56
2018-08-28T14:18:53.902Z,40.47
2018-08-28T14:22:18.623Z,41.29
2018-08-28T14:25:43.229Z,43.16
2018-08-28T14:29:08.036Z,40.67
2018-08-28T14:32:32.637Z,41.79
2018-08-28T14:35:57.270Z,39.01
2018-08-28T14:39:21.888Z,39.97
2018-08-28T14:42:46.703Z,41.11
2018-08-28T14:46:11.260Z,41.59
2018-08-28T14:49:35.942Z,38.83
2018-08-28T14:53:00.603Z,40.32
2018-08-28T14:56:25.300Z,38.39
2018-08-28T14:59:49.951Z,37.50
2018-08-28T15:03:15.440Z,38.69
2018-08-28T15:06:40.220Z,36.72
2018-08-28T15:10:06.043Z,36.41
2018-08-28T15:13:31.825Z,37.09
2018-08-28T15:16:56.573Z,35.86
2018-08-28T15:20:23.154Z,36.51
2018-08-28T15:23:47.807Z,35.92
2018-08-28T15:27:12.534Z,36.92
2018-08-28T15:30:37.143Z,34.41
2018-08-28T15:34:02.021Z,34.04
2018-08-28T15:37:26.719Z,34.83
2018-08-28T15:40:51.483Z,34.07
2018-08-28T15:44:16.233Z,37.70
2018-08-28T15:47:41.024Z,35.13
2018-08-28T15:51:05.984Z,34.19
2018-08-28T15:54:32.804Z,34.56
2018-08-28T15:57:57.559Z,34.53
2018-08-28T16:01:22.224Z,36.18
2018-08-28T16:04:47.026Z,35.16
2018-08-28T16:08:11.711Z,36.08
2018-08-28T16:11:36.417Z,36.05
2018-08-28T16:15:01.078Z,35.90
2018-08-28T16:18:25.789Z,35.55
2018-08-28T16:21:55.346Z,36.39
2018-08-28T16:25:20.111Z,36.17
2018-08-28T16:28:44.760Z,36.53
2018-08-28T16:40:15.766Z,35.22
2018-08-28T16:43:40.521Z,35.62
2018-08-28T16:47:05.259Z,36.13
2018-08-28T16:50:29.979Z,36.76
2018-08-28T16:53:54.673Z,37.60
2018-08-28T16:57:19.308Z,39.00
2018-08-28T17:00:43.950Z,41.30
2018-08-28T17:04:08.604Z,39.33
2018-08-28T17:07:33.261Z,39.70
2018-08-28T17:10:58.042Z,40.06
2018-08-28T17:14:22.764Z,39.52
2018-08-28T17:17:47.564Z,41.30
2018-08-28T17:21:12.217Z,42.48
2018-08-28T17:24:36.936Z,43.67
2018-08-28T17:28:01.580Z,43.16
2018-08-28T17:31:26.291Z,44.45
2018-08-28T17:34:50.983Z,44.79
2018-08-28T17:38:16.260Z,44.33
2018-08-28T17:41:40.965Z,45.36
2018-08-28T17:45:05.658Z,46.26
2018-08-28T17:48:30.375Z,45.91
2018-08-28T17:51:55.030Z,45.55
2018-08-28T17:55:19.692Z,46.30
2018-08-28T17:58:44.366Z,46.90
2018-08-28T18:02:09.533Z,46.84
2018-08-28T18:05:34.324Z,46.90
2018-08-28T18:08:59.066Z,47.73
2018-08-28T18:12:23.789Z,47.96
2018-08-28T18:15:48.556Z,47.56
2018-08-28T18:19:14.289Z,48.54
2018-08-28T18:22:39.704Z,49.96
2018-08-28T18:26:04.962Z,49.32
2018-08-28T18:29:30.409Z,49.83
2018-08-28T18:32:57.666Z,50.73
2018-08-28T18:36:23.323Z,50.48
2018-08-28T18:39:48.679Z,51.60
2018-08-28T18:43:13.985Z,50.78
2018-08-28T18:46:39.445Z,51.29
2018-08-28T18:50:04.899Z,51.69
2018-08-28T18:53:29.855Z,53.02
2018-08-28T18:56:55.094Z,52.89
2018-08-28T19:00:20.202Z,53.01
2018-08-28T19:03:45.623Z,52.97
2018-08-28T19:07:10.351Z,52.95
2018-08-28T19:10:35.171Z,54.14
2018-08-28T19:14:00.244Z,53.69
2018-08-28T19:17:25.788Z,52.92
2018-08-28T19:20:50.564Z,54.59
2018-08-28T19:24:15.513Z,55.83
2018-08-28T19:27:40.293Z,54.57
2018-08-28T19:31:05.388Z,53.71
2018-08-28T19:34:30.226Z,56.28
2018-08-28T19:37:55.612Z,56.23
2018-08-28T19:41:20.587Z,56.27
2018-08-28T19:44:45.459Z,55.80
2018-08-28T19:48:10.426Z,55.86
2018-08-28T19:51:35.519Z,56.30
2018-08-28T19:55:00.522Z,56.88
2018-08-28T19:58:25.382Z,56.94
2018-08-28T20:01:50.024Z,56.67
2018-08-28T20:05:15.735Z,59.79
2018-08-28T20:08:40.500Z,58.25
2018-08-28T20:12:05.537Z,58.37
2018-08-28T20:15:30.274Z,56.93
2018-08-28T20:18:54.960Z,56.57
2018-08-28T20:22:19.734Z,57.05
2018-08-28T20:25:44.429Z,57.82
2018-08-28T20:29:09.251Z,58.82
2018-08-28T20:32:33.925Z,59.38
2018-08-28T20:35:58.686Z,59.71
2018-08-28T20:39:23.459Z,57.30
2018-08-28T20:42:48.149Z,59.72
2018-08-28T20:46:12.955Z,58.43
2018-08-28T20:49:37.779Z,58.47
2018-08-28T20:53:02.521Z,60.64
2018-08-28T20:56:27.189Z,61.16
2018-08-28T20:59:52.423Z,62.59
2018-08-28T21:03:17.743Z,62.81
2018-08-28T21:06:42.623Z,60.58
2018-08-28T21:10:07.374Z,62.93
2018-08-28T21:13:32.114Z,63.70
2018-08-28T21:16:56.798Z,62.87
2018-08-28T21:20:21.569Z,60.55
2018-08-28T21:23:46.288Z,61.09
2018-08-28T21:27:11.081Z,61.27
2018-08-28T21:30:35.751Z,61.84
2018-08-28T21:34:00.531Z,62.60
2018-08-28T21:37:25.238Z,63.58
2018-08-28T21:40:49.988Z,63.39
2018-08-28T21:44:14.728Z,61.75
2018-08-28T21:47:39.488Z,63.00
2018-08-28T21:51:04.249Z,62.11
2018-08-28T21:54:28.949Z,62.78
2018-08-28T21:57:53.715Z,62.82
2018-08-28T22:01:18.438Z,62.17
2018-08-28T22:04:43.103Z,65.16
2018-08-28T22:08:08.216Z,67.14
2018-08-28T22:11:33.273Z,67.45
2018-08-28T22:14:57.921Z,66.40
2018-08-28T22:18:23.849Z,64.03
2018-08-28T22:21:48.598Z,66.39
2018-08-28T22:25:13.403Z,67.82
2018-08-28T22:36:36.947Z,69.44
2018-08-28T22:40:01.754Z,70.44
2018-08-28T22:43:26.545Z,70.36
2018-08-28T22:46:51.348Z,68.05
2018-08-28T22:50:16.167Z,67.60
2018-08-28T22:53:40.852Z,69.20
2018-08-28T22:57:05.704Z,69.76
2018-08-28T23:00:30.337Z,67.27
2018-08-28T23:03:55.094Z,66.50
2018-08-28T23:07:19.758Z,68.25
2018-08-28T23:10:44.405Z,66.60
2018-08-28T23:14:09.044Z,68.64
2018-08-28T23:17:33.714Z,69.48
2018-08-28T23:20:58.479Z,68.95
2018-08-28T23:24:23.145Z,68.72
2018-08-28T23:27:47.825Z,68.44
2018-08-28T23:31:12.582Z,68.42
2018-08-28T23:34:37.291Z,71.51
2018-08-28T23:38:01.985Z,72.28
2018-08-28T23:41:26.693Z,69.63
2018-08-28T23:44:51.483Z,72.69
2018-08-28T23:48:16.125Z,73.13
2018-08-28T23:51:40.856Z,73.49
2018-08-28T23:55:05.583Z,73.99
2018-08-28T23:58:30.227Z,74.00
